Maimiti — PBIJ — position and weather

sailwx.info

Track history (hours):
 
Tides and Currents Weather Stations Pressure Air Temp Water Temp Dewpoint Dewpoint Depression Visibility Wind Speed Wind Dir Waves Ship Positions

Maimiti

Last reported at 2016-May-06 18:30 UTC. Time now 2016-May-06 18:42 UTC.
Position N 51°28' E 003°41'.

Length 35 m; draft 6.9 m.

Type: Tug. MMSI: 244850959.

Date/timePositionNaut miles runAvg speedWind from/ knotsBaromVisibWave heightAir tempDewpointWater temp
2016-May-06 18:30N 51°28' E 003°41'0 0.0
2016-May-06 17:24N 51°28' E 003°41'0 0.0
2016-May-06 16:30N 51°28' E 003°41'0 0.1
2016-May-06 15:23N 51°28' E 003°41'2 1.7
2016-May-06 14:28N 51°29' E 003°42'0 0.0
2016-May-06 13:31N 51°29' E 003°42'0 0.0
2016-May-06 12:28N 51°29' E 003°42'0 0.0
2016-May-06 11:31N 51°29' E 003°42'0 0.0
2016-May-06 10:28N 51°29' E 003°42'0 0.0
2016-May-06 09:25N 51°29' E 003°42'0 0.0
2016-May-06 08:31N 51°29' E 003°42'0 0.0
2016-May-06 07:31N 51°29' E 003°42'0 0.0
2016-May-06 06:31N 51°29' E 003°42'0 0.0
2016-May-06 05:31N 51°29' E 003°42'0 0.0
2016-May-06 04:25N 51°29' E 003°42'0 0.0
2016-May-06 03:28N 51°29' E 003°42'0 0.0
2016-May-06 00:13N 51°29' E 003°42'0 0.0
2016-May-05 23:31N 51°29' E 003°42'0 0.0
2016-May-05 22:31N 51°29' E 003°42'0 0.0
2016-May-05 21:31N 51°29' E 003°42'0 0.0
2016-May-05 20:19N 51°29' E 003°42'0 0.0
2016-May-05 19:31N 51°29' E 003°42'0 0.0
2016-May-05 18:31N 51°29' E 003°42'0 0.0
2016-May-05 17:31N 51°29' E 003°42'0 0.0
2016-May-05 16:31N 51°29' E 003°42'0 0.0
2016-May-05 15:31N 51°29' E 003°42'0 0.0
2016-May-05 12:27N 51°29' E 003°42'0 0.0
2016-May-05 11:30N 51°29' E 003°42'0 0.0
2016-May-05 10:30N 51°29' E 003°42'0 0.0
2016-May-05 09:30N 51°29' E 003°42'0 0.0
2016-May-05 08:30N 51°29' E 003°42'0 0.0
2016-May-05 07:30N 51°29' E 003°42'0 0.0
2016-May-05 06:30N 51°29' E 003°42'0 0.0
2016-May-05 05:30N 51°29' E 003°42'0 0.0
2016-May-05 04:30N 51°29' E 003°42'0 0.0
2016-May-05 03:33N 51°29' E 003°42'0 0.0
2016-May-05 02:33N 51°29' E 003°42'0 0.0
2016-May-05 01:30N 51°29' E 003°42'0 0.0
2016-May-05 00:24N 51°29' E 003°42'0 0.0
2016-May-04 23:12N 51°29' E 003°42'0 0.0
2016-May-04 22:30N 51°29' E 003°42'0 0.0
2016-May-04 21:33N 51°29' E 003°42'0 0.0
2016-May-04 20:27N 51°29' E 003°42'0 0.5
2016-May-04 19:34N 51°28' E 003°42'4 4.3
2016-May-04 18:34N 51°26' E 003°36'6 6.3
2016-May-04 17:34N 51°30' E 003°28'33 3.6
2016-May-04 08:28N 52°03' E 003°35'6 6.5
2016-May-04 07:34N 52°03' E 003°45'7 6.8
2016-May-04 06:33N 52°02' E 003°56'7 6.9
2016-May-04 05:34N 51°59' E 004°06'5 5.2
2016-May-04 04:33N 51°55' E 004°12'3 3.4
2016-May-04 03:34N 51°58' E 004°08'7 6.7
2016-May-04 02:34N 51°54' E 004°17'5 5.2
2016-May-04 01:33N 51°54' E 004°26'0 0.0
2016-May-04 00:33N 51°54' E 004°26'0 0.0
2016-May-03 23:33N 51°54' E 004°26'0 0.0
2016-May-03 22:33N 51°54' E 004°26'0 0.0
2016-May-03 21:33N 51°54' E 004°26'0 0.0
2016-May-03 20:33N 51°54' E 004°26'0 0.0
2016-May-03 19:27N 51°54' E 004°26'0 0.0
2016-May-03 18:33N 51°54' E 004°26'0 0.0
2016-May-03 17:33N 51°54' E 004°26'0 0.0
2016-May-03 16:33N 51°54' E 004°26'0 0.0
2016-May-03 15:33N 51°54' E 004°26'0 0.0
2016-May-03 14:33N 51°54' E 004°26'0 0.0
2016-May-03 13:33N 51°54' E 004°26'0 0.0
2016-May-03 12:33N 51°54' E 004°26'0 0.0
2016-May-03 11:33N 51°54' E 004°26'0 0.0
2016-May-03 10:33N 51°54' E 004°26'0 0.0
2016-May-03 09:33N 51°54' E 004°26'0 0.0
2016-May-03 08:30N 51°54' E 004°26'0 0.0
2016-May-03 07:33N 51°54' E 004°26'0 0.0
2016-May-03 06:30N 51°54' E 004°26'0 0.0
2016-May-03 05:33N 51°54' E 004°26'0 0.0
2016-May-03 04:33N 51°54' E 004°26'0 0.0
2016-May-03 03:33N 51°54' E 004°26'0 0.0
2016-May-03 02:33N 51°54' E 004°26'0 0.0
2016-May-03 01:33N 51°54' E 004°26'0 0.0
2016-May-03 00:33N 51°54' E 004°26'0 0.0
2016-May-02 23:33N 51°54' E 004°26'0 0.0
2016-May-02 22:33N 51°54' E 004°26'0 0.0
2016-May-02 21:33N 51°54' E 004°26'0 0.0
2016-May-02 20:29N 51°54' E 004°26'3 3.0
2016-May-02 19:33N 51°54' E 004°21'8 8.2
2016-May-02 18:33N 51°57' E 004°09'8 8.2
2016-May-02 17:33N 52°01' E 003°57'9 8.1
2016-May-02 16:29N 52°06' E 003°47'59 8.3
2016-May-02 09:21N 53°04' E 004°12'35 9.1
2016-May-02 05:30N 53°35' E 004°39'27 8.9
2016-May-02 02:30N 54°00' E 004°54'10 8.4
2016-May-02 01:22N 54°09' E 004°59'7 8.6
2016-May-02 00:33N 54°16' E 005°02'  
2016-Apr-29 06:32N 55°39' E 007°07'10 9.8
2016-Apr-29 05:33N 55°33' E 007°21'10 9.6
2016-Apr-29 04:33N 55°28' E 007°36'9 9.0
2016-Apr-29 03:33N 55°25' E 007°51'9 8.6
2016-Apr-29 02:33N 55°25' E 008°06'8 7.8
2016-Apr-29 01:33N 55°28' E 008°19'4 3.1
2016-Apr-29 00:19N 55°28' E 008°26'0 0.0
2016-Apr-28 23:19N 55°28' E 008°26'0 0.0
2016-Apr-28 22:31N 55°28' E 008°26'0 0.0
2016-Apr-28 21:33N 55°28' E 008°26'0 0.0
2016-Apr-28 20:33N 55°28' E 008°26'0 0.0
2016-Apr-28 19:33N 55°28' E 008°26'0 0.0
2016-Apr-28 18:33N 55°28' E 008°26'0 0.0
2016-Apr-28 17:24N 55°28' E 008°26'0 0.0
2016-Apr-28 16:33N 55°28' E 008°26'0 0.0
2016-Apr-28 15:33N 55°28' E 008°26'0 0.0
2016-Apr-28 14:33N 55°28' E 008°26'0 0.0
2016-Apr-28 13:33N 55°28' E 008°26'0 0.0
2016-Apr-28 12:32N 55°28' E 008°26'0 0.0
2016-Apr-28 11:33N 55°28' E 008°26'0 0.0
2016-Apr-28 10:33N 55°28' E 008°26'0 0.0
2016-Apr-28 09:32N 55°28' E 008°26'0 0.0
2016-Apr-28 08:32N 55°28' E 008°26'0 0.0
2016-Apr-28 07:33N 55°28' E 008°26'0 0.0
2016-Apr-28 06:31N 55°28' E 008°26'6 5.8
2016-Apr-28 05:33N 55°27' E 008°16'9 8.8
2016-Apr-28 04:32N 55°19' E 008°09'36 8.6
2016-Apr-28 00:22N 54°44' E 007°56'7 8.3
2016-Apr-27 23:33N 54°37' E 007°52'8 7.9
2016-Apr-27 22:33N 54°29' E 007°50'8 8.2
2016-Apr-27 21:33N 54°21' E 007°47'8 8.2
2016-Apr-27 20:33N 54°13' E 007°45'8 8.0
2016-Apr-27 19:33N 54°06' E 007°52'1010.1
2016-Apr-27 18:33N 54°02' E 008°07'1110.8
2016-Apr-27 17:34N 53°59' E 008°25'1010.1
2016-Apr-27 16:33N 53°55' E 008°41'7 7.3
2016-Apr-27 15:33N 53°50' E 008°50'6 5.9
2016-Apr-27 14:33N 53°51' E 008°60'6 5.6
2016-Apr-27 13:33N 53°53' E 009°08'3 3.1
2016-Apr-27 12:34N 53°56' E 009°12'9 8.2
2016-Apr-27 11:30N 54°03' E 009°19'19 6.3
2016-Apr-27 08:33N 54°17' E 009°40'7 7.5
2016-Apr-27 07:33N 54°22' E 009°50'7 7.4
2016-Apr-27 06:33N 54°22' E 010°03'4 3.6
2016-Apr-27 05:33N 54°22' E 010°09'6 6.3
2016-Apr-27 04:33N 54°27' E 010°15'11 9.3
2016-Apr-27 03:22N 54°33' E 010°31'8 9.4
2016-Apr-27 02:33N 54°35' E 010°44'9 9.4
2016-Apr-27 01:33N 54°36' E 010°60'9 8.9
2016-Apr-27 00:33N 54°35' E 011°15'9 9.5
2016-Apr-26 23:33N 54°31' E 011°30'10 9.6
2016-Apr-26 22:33N 54°27' E 011°45'9 9.4
2016-Apr-26 21:33N 54°27' E 012°01'25 8.2
2016-Apr-26 18:33N 54°43' E 012°33'  
Track history (hours):
 
Tides and Currents Weather Stations Pressure Air Temp Water Temp Dewpoint Dewpoint Depression Visibility Wind Speed Wind Dir Waves Ship Positions

Maimiti

Last reported at 2016-May-06 18:30 UTC. Time now 2016-May-06 18:42 UTC.
Position N 51°28' E 003°41'.

Length 35 m; draft 6.9 m.

Type: Tug. MMSI: 244850959.

Date/timePositionNaut miles runAvg speedWind from/ knotsBaromVisibWave heightAir tempDewpointWater temp
2016-May-06 18:30N 51°28' E 003°41'0 0.0
2016-May-06 17:24N 51°28' E 003°41'0 0.0
2016-May-06 16:30N 51°28' E 003°41'0 0.1
2016-May-06 15:23N 51°28' E 003°41'2 1.7
2016-May-06 14:28N 51°29' E 003°42'0 0.0
2016-May-06 13:31N 51°29' E 003°42'0 0.0
2016-May-06 12:28N 51°29' E 003°42'0 0.0
2016-May-06 11:31N 51°29' E 003°42'0 0.0
2016-May-06 10:28N 51°29' E 003°42'0 0.0
2016-May-06 09:25N 51°29' E 003°42'0 0.0
2016-May-06 08:31N 51°29' E 003°42'0 0.0
2016-May-06 07:31N 51°29' E 003°42'0 0.0
2016-May-06 06:31N 51°29' E 003°42'0 0.0
2016-May-06 05:31N 51°29' E 003°42'0 0.0
2016-May-06 04:25N 51°29' E 003°42'0 0.0
2016-May-06 03:28N 51°29' E 003°42'0 0.0
2016-May-06 00:13N 51°29' E 003°42'0 0.0
2016-May-05 23:31N 51°29' E 003°42'0 0.0
2016-May-05 22:31N 51°29' E 003°42'0 0.0
2016-May-05 21:31N 51°29' E 003°42'0 0.0
2016-May-05 20:19N 51°29' E 003°42'0 0.0
2016-May-05 19:31N 51°29' E 003°42'0 0.0
2016-May-05 18:31N 51°29' E 003°42'0 0.0
2016-May-05 17:31N 51°29' E 003°42'0 0.0
2016-May-05 16:31N 51°29' E 003°42'0 0.0
2016-May-05 15:31N 51°29' E 003°42'0 0.0
2016-May-05 12:27N 51°29' E 003°42'0 0.0
2016-May-05 11:30N 51°29' E 003°42'0 0.0
2016-May-05 10:30N 51°29' E 003°42'0 0.0
2016-May-05 09:30N 51°29' E 003°42'0 0.0
2016-May-05 08:30N 51°29' E 003°42'0 0.0
2016-May-05 07:30N 51°29' E 003°42'0 0.0
2016-May-05 06:30N 51°29' E 003°42'0 0.0
2016-May-05 05:30N 51°29' E 003°42'0 0.0
2016-May-05 04:30N 51°29' E 003°42'0 0.0
2016-May-05 03:33N 51°29' E 003°42'0 0.0
2016-May-05 02:33N 51°29' E 003°42'0 0.0
2016-May-05 01:30N 51°29' E 003°42'0 0.0
2016-May-05 00:24N 51°29' E 003°42'0 0.0
2016-May-04 23:12N 51°29' E 003°42'0 0.0
2016-May-04 22:30N 51°29' E 003°42'0 0.0
2016-May-04 21:33N 51°29' E 003°42'0 0.0
2016-May-04 20:27N 51°29' E 003°42'0 0.5
2016-May-04 19:34N 51°28' E 003°42'4 4.3
2016-May-04 18:34N 51°26' E 003°36'6 6.3
2016-May-04 17:34N 51°30' E 003°28'33 3.6
2016-May-04 08:28N 52°03' E 003°35'6 6.5
2016-May-04 07:34N 52°03' E 003°45'7 6.8
2016-May-04 06:33N 52°02' E 003°56'7 6.9
2016-May-04 05:34N 51°59' E 004°06'5 5.2
2016-May-04 04:33N 51°55' E 004°12'3 3.4
2016-May-04 03:34N 51°58' E 004°08'7 6.7
2016-May-04 02:34N 51°54' E 004°17'5 5.2
2016-May-04 01:33N 51°54' E 004°26'0 0.0
2016-May-04 00:33N 51°54' E 004°26'0 0.0
2016-May-03 23:33N 51°54' E 004°26'0 0.0
2016-May-03 22:33N 51°54' E 004°26'0 0.0
2016-May-03 21:33N 51°54' E 004°26'0 0.0
2016-May-03 20:33N 51°54' E 004°26'0 0.0
2016-May-03 19:27N 51°54' E 004°26'0 0.0
2016-May-03 18:33N 51°54' E 004°26'0 0.0
2016-May-03 17:33N 51°54' E 004°26'0 0.0
2016-May-03 16:33N 51°54' E 004°26'0 0.0
2016-May-03 15:33N 51°54' E 004°26'0 0.0
2016-May-03 14:33N 51°54' E 004°26'0 0.0
2016-May-03 13:33N 51°54' E 004°26'0 0.0
2016-May-03 12:33N 51°54' E 004°26'0 0.0
2016-May-03 11:33N 51°54' E 004°26'0 0.0
2016-May-03 10:33N 51°54' E 004°26'0 0.0
2016-May-03 09:33N 51°54' E 004°26'0 0.0
2016-May-03 08:30N 51°54' E 004°26'0 0.0
2016-May-03 07:33N 51°54' E 004°26'0 0.0
2016-May-03 06:30N 51°54' E 004°26'0 0.0
2016-May-03 05:33N 51°54' E 004°26'0 0.0
2016-May-03 04:33N 51°54' E 004°26'0 0.0
2016-May-03 03:33N 51°54' E 004°26'0 0.0
2016-May-03 02:33N 51°54' E 004°26'0 0.0
2016-May-03 01:33N 51°54' E 004°26'0 0.0
2016-May-03 00:33N 51°54' E 004°26'0 0.0
2016-May-02 23:33N 51°54' E 004°26'0 0.0
2016-May-02 22:33N 51°54' E 004°26'0 0.0
2016-May-02 21:33N 51°54' E 004°26'0 0.0
2016-May-02 20:29N 51°54' E 004°26'3 3.0
2016-May-02 19:33N 51°54' E 004°21'8 8.2
2016-May-02 18:33N 51°57' E 004°09'8 8.2
2016-May-02 17:33N 52°01' E 003°57'9 8.1
2016-May-02 16:29N 52°06' E 003°47'59 8.3
2016-May-02 09:21N 53°04' E 004°12'35 9.1
2016-May-02 05:30N 53°35' E 004°39'27 8.9
2016-May-02 02:30N 54°00' E 004°54'10 8.4
2016-May-02 01:22N 54°09' E 004°59'7 8.6
2016-May-02 00:33N 54°16' E 005°02'  
2016-Apr-29 06:32N 55°39' E 007°07'10 9.8
2016-Apr-29 05:33N 55°33' E 007°21'10 9.6
2016-Apr-29 04:33N 55°28' E 007°36'9 9.0
2016-Apr-29 03:33N 55°25' E 007°51'9 8.6
2016-Apr-29 02:33N 55°25' E 008°06'8 7.8
2016-Apr-29 01:33N 55°28' E 008°19'4 3.1
2016-Apr-29 00:19N 55°28' E 008°26'0 0.0
2016-Apr-28 23:19N 55°28' E 008°26'0 0.0
2016-Apr-28 22:31N 55°28' E 008°26'0 0.0
2016-Apr-28 21:33N 55°28' E 008°26'0 0.0
2016-Apr-28 20:33N 55°28' E 008°26'0 0.0
2016-Apr-28 19:33N 55°28' E 008°26'0 0.0
2016-Apr-28 18:33N 55°28' E 008°26'0 0.0
2016-Apr-28 17:24N 55°28' E 008°26'0 0.0
2016-Apr-28 16:33N 55°28' E 008°26'0 0.0
2016-Apr-28 15:33N 55°28' E 008°26'0 0.0
2016-Apr-28 14:33N 55°28' E 008°26'0 0.0
2016-Apr-28 13:33N 55°28' E 008°26'0 0.0
2016-Apr-28 12:32N 55°28' E 008°26'0 0.0
2016-Apr-28 11:33N 55°28' E 008°26'0 0.0
2016-Apr-28 10:33N 55°28' E 008°26'0 0.0
2016-Apr-28 09:32N 55°28' E 008°26'0 0.0
2016-Apr-28 08:32N 55°28' E 008°26'0 0.0
2016-Apr-28 07:33N 55°28' E 008°26'0 0.0
2016-Apr-28 06:31N 55°28' E 008°26'6 5.8
2016-Apr-28 05:33N 55°27' E 008°16'9 8.8
2016-Apr-28 04:32N 55°19' E 008°09'36 8.6
2016-Apr-28 00:22N 54°44' E 007°56'7 8.3
2016-Apr-27 23:33N 54°37' E 007°52'8 7.9
2016-Apr-27 22:33N 54°29' E 007°50'8 8.2
2016-Apr-27 21:33N 54°21' E 007°47'8 8.2
2016-Apr-27 20:33N 54°13' E 007°45'8 8.0
2016-Apr-27 19:33N 54°06' E 007°52'1010.1
2016-Apr-27 18:33N 54°02' E 008°07'1110.8
2016-Apr-27 17:34N 53°59' E 008°25'1010.1
2016-Apr-27 16:33N 53°55' E 008°41'7 7.3
2016-Apr-27 15:33N 53°50' E 008°50'6 5.9
2016-Apr-27 14:33N 53°51' E 008°60'6 5.6
2016-Apr-27 13:33N 53°53' E 009°08'3 3.1
2016-Apr-27 12:34N 53°56' E 009°12'9 8.2
2016-Apr-27 11:30N 54°03' E 009°19'19 6.3
2016-Apr-27 08:33N 54°17' E 009°40'7 7.5
2016-Apr-27 07:33N 54°22' E 009°50'7 7.4
2016-Apr-27 06:33N 54°22' E 010°03'4 3.6
2016-Apr-27 05:33N 54°22' E 010°09'6 6.3
2016-Apr-27 04:33N 54°27' E 010°15'11 9.3
2016-Apr-27 03:22N 54°33' E 010°31'8 9.4
2016-Apr-27 02:33N 54°35' E 010°44'9 9.4
2016-Apr-27 01:33N 54°36' E 010°60'9 8.9
2016-Apr-27 00:33N 54°35' E 011°15'9 9.5
2016-Apr-26 23:33N 54°31' E 011°30'10 9.6
2016-Apr-26 22:33N 54°27' E 011°45'9 9.4
2016-Apr-26 21:33N 54°27' E 012°01'25 8.2
2016-Apr-26 18:33N 54°43' E 012°33'  

Dump ship's entire track history